Time;durP1;ratioP1;P1;durP2;ratioP2;P2;SDS_P1;SDS_P2;PMS_P1;PMS_P2;Temp;Humidity;BMP_temperature;BMP_pressure;BME280_temperature;BME280_humidity;BME280_pressure;Samples;Min_cycle;Max_cycle;Signal;HPM_P1;HPM_P2
2022/11/09 11:11:52;;;;;;;24.40;15.30;;;;;;;22.98;36.89;101343.94;105624;1276;1357194;31
2022/11/09 11:14:54;;;;;;;30.40;15.40;;;;;;;23.00;36.85;101334.51;106634;1283;74078;-87
2022/11/09 11:17:26;;;;;;;30.50;16.70;;;;;;;23.01;36.96;101334.66;106072;1293;80877;-87
2022/11/09 11:19:54;;;;;;;31.00;16.60;;;;;;;23.02;37.03;101330.25;106547;1289;72112;-87
2022/11/09 11:22:27;;;;;;;26.50;14.70;;;;;;;23.03;37.11;101325.07;106561;1283;66708;-87
2022/11/09 11:24:55;;;;;;;26.50;16.50;;;;;;;23.05;37.31;101324.16;106452;1286;67182;-85
2022/11/09 11:27:45;;;;;;;26.80;16.20;;;;;;;23.05;37.36;101320.06;106505;1277;74537;-92
2022/11/09 11:30:27;;;;;;;36.80;15.90;;;;;;;23.05;37.30;101315.29;106366;1287;82139;-84
2022/11/09 11:32:56;;;;;;;25.10;15.80;;;;;;;23.05;37.26;101315.08;106354;1283;72408;-83
2022/11/09 11:35:30;;;;;;;26.30;14.80;;;;;;;23.06;37.25;101315.04;106438;1290;66708;-83
2022/11/09 12:52:25;;;;;;;23.60;15.20;;;;;;;22.98;36.15;101277.63;107220;1275;67228;31
2022/11/09 14:04:47;;;;;;;23.10;14.30;;;;;;;23.11;37.69;101271.11;106633;1285;469657;-89
2022/11/09 14:07:22;;;;;;;22.30;13.70;;;;;;;23.10;37.55;101267.98;106746;1284;66106;-89
2022/11/09 14:10:00;;;;;;;25.60;12.70;;;;;;;23.06;37.34;101266.95;106947;1273;65952;-90
2022/11/09 14:12:31;;;;;;;23.90;13.40;;;;;;;23.01;37.13;101264.25;106670;1283;74291;-90
2022/11/09 14:15:26;;;;;;;25.00;13.60;;;;;;;22.94;37.05;101268.32;107148;1283;74376;31
2022/11/09 14:21:01;;;;;;;18.50;12.00;;;;;;;22.80;36.85;101263.80;107047;1280;66633;-88
2022/11/09 14:23:28;;;;;;;21.20;11.80;;;;;;;22.76;36.87;101263.52;107278;1278;66617;-91
2022/11/09 14:25:54;;;;;;;18.00;11.30;;;;;;;22.78;37.19;101260.20;107111;1281;74332;-91
2022/11/09 14:28:22;;;;;;;22.30;12.10;;;;;;;22.83;37.31;101262.99;106965;1278;66376;-90
2022/11/09 14:30:48;;;;;;;15.00;11.30;;;;;;;22.87;37.61;101257.41;106912;1281;72507;-91
2022/11/09 14:33:27;;;;;;;16.20;11.50;;;;;;;22.90;37.63;101258.14;106735;1283;66745;-90
2022/11/09 14:36:02;;;;;;;23.60;11.60;;;;;;;22.94;37.59;101257.08;106737;1283;66559;31
2022/11/09 14:38:36;;;;;;;19.50;12.20;;;;;;;22.96;37.41;101257.34;107021;1278;73323;-90
2022/11/09 14:41:01;;;;;;;20.50;11.70;;;;;;;22.97;37.38;101260.69;107184;1280;73636;-89
2022/11/09 14:43:41;;;;;;;21.00;12.50;;;;;;;22.99;37.26;101259.68;107097;1284;65924;-90
2022/11/09 14:46:15;;;;;;;17.70;12.00;;;;;;;23.02;37.11;101259.83;107266;1278;66706;-90
2022/11/09 14:48:40;;;;;;;21.10;11.80;;;;;;;23.03;37.03;101259.33;107020;1286;68097;-90
2022/11/09 14:51:12;;;;;;;19.30;13.50;;;;;;;23.05;36.94;101260.66;106793;1283;66008;-91
2022/11/09 14:53:40;;;;;;;29.10;14.50;;;;;;;23.06;36.86;101258.11;107058;1280;73272;-90
2022/11/09 14:56:06;;;;;;;22.10;13.90;;;;;;;23.07;36.72;101258.42;107007;1283;72413;-91
2022/11/09 14:58:40;;;;;;;20.10;13.00;;;;;;;23.08;36.62;101258.11;106923;1281;65864;-90
2022/11/09 15:01:22;;;;;;;21.20;13.30;;;;;;;23.10;36.66;101264.14;107045;1280;65922;-90
2022/11/09 15:04:07;;;;;;;18.30;12.60;;;;;;;23.10;36.59;101261.92;106995;1287;65929;-91
2022/11/09 15:06:32;;;;;;;22.60;11.90;;;;;;;23.12;36.49;101261.77;107052;1281;82071;-91
2022/11/09 15:09:07;;;;;;;24.20;12.70;;;;;;;23.14;36.49;101264.34;107032;1283;65920;-91
2022/11/09 15:11:37;;;;;;;22.00;13.00;;;;;;;23.14;36.33;101258.65;107036;1273;65885;-91
2022/11/09 15:14:13;;;;;;;;;;;;;;;23.16;36.31;101260.96;106903;1282;66392;-91
2022/11/09 15:16:39;;;;;;;23.20;12.30;;;;;;;23.15;36.34;101266.35;107224;1277;66118;-90
2022/11/09 15:19:04;;;;;;;21.60;12.40;;;;;;;23.16;36.23;101262.96;106901;1281;66643;-91
2022/11/09 15:21:30;;;;;;;26.40;14.50;;;;;;;23.18;36.20;101261.02;106811;1284;66672;-90
2022/11/09 15:24:07;;;;;;;26.10;15.00;;;;;;;23.18;36.11;101262.41;107100;1286;66583;-91
2022/11/09 15:26:40;;;;;;;27.60;16.10;;;;;;;23.19;36.10;101264.92;107029;1287;67121;-90
2022/11/09 15:30:27;;;;;;;30.00;17.20;;;;;;;23.23;36.06;101264.20;101549;1311;601159;-89
2022/11/09 15:32:53;;;;;;;31.00;21.20;;;;;;;23.21;35.91;101259.67;101113;1326;69121;-90
2022/11/09 15:35:18;;;;;;;40.40;22.70;;;;;;;23.20;35.81;101260.23;100904;1332;69247;-90
2022/11/09 15:37:49;;;;;;;32.20;22.30;;;;;;;23.20;35.74;101263.91;101277;1339;66967;-90
2022/11/09 15:40:16;;;;;;;;;;;;;;;23.19;35.68;101266.38;101213;1331;73433;-90
2022/11/09 15:42:41;;;;;;;32.90;20.40;;;;;;;23.17;35.79;101267.19;101054;1333;247077;-90
2022/11/09 15:45:07;;;;;;;32.20;20.30;;;;;;;23.18;35.72;101268.73;101995;1306;69236;-89
2022/11/09 15:50:03;;;;;;;33.90;19.10;;;;;;;23.18;35.67;101268.63;101707;1301;69301;-91
2022/11/09 15:52:34;;;;;;;32.80;19.00;;;;;;;23.20;35.74;101273.36;102029;1297;83268;-90
2022/11/09 15:54:59;;;;;;;29.30;18.70;;;;;;;23.20;35.67;101269.57;102241;1304;69075;-91
2022/11/09 15:57:25;;;;;;;33.10;19.40;;;;;;;23.20;35.57;101273.41;101636;1332;69241;-90
2022/11/09 15:59:55;;;;;;;33.00;18.60;;;;;;;23.21;35.60;101275.85;101601;1308;69186;-88
2022/11/09 16:02:21;;;;;;;;;;;;;;;23.23;35.62;101276.84;101347;1335;72979;-89
2022/11/09 16:04:46;;;;;;;32.30;20.00;;;;;;;23.22;35.69;101280.52;101285;1337;69607;-89
2022/11/09 16:07:13;;;;;;;32.10;19.40;;;;;;;23.23;35.58;101280.58;101776;1337;67375;-89
2022/11/09 16:09:39;;;;;;;29.80;19.10;;;;;;;23.24;35.57;101285.36;101975;1317;67254;-89
2022/11/09 16:12:05;;;;;;;32.50;19.70;;;;;;;23.25;35.61;101281.25;101659;1318;67687;-89
2022/11/09 16:14:31;;;;;;;32.80;19.50;;;;;;;23.26;35.59;101281.61;101311;1336;68071;-91
2022/11/09 16:16:56;;;;;;;32.80;19.80;;;;;;;23.26;35.60;101283.67;100985;1339;69704;-90
2022/11/09 16:19:22;;;;;;;32.50;20.10;;;;;;;23.27;35.66;101284.29;101180;1336;70128;-90
2022/11/09 16:21:47;;;;;;;28.40;19.50;;;;;;;23.27;35.63;101288.08;101409;1340;69226;-90
2022/11/09 16:24:15;;;;;;;31.80;20.30;;;;;;;23.27;35.60;101288.09;101319;1322;69281;-89
2022/11/09 16:26:40;;;;;;;30.30;20.80;;;;;;;23.24;35.56;101292.19;101790;1312;69623;-89
2022/11/09 16:29:06;;;;;;;32.10;20.30;;;;;;;23.21;35.58;101289.60;102705;1329;67797;-89
2022/11/09 16:31:52;;;;;;;46.30;30.70;;;;;;;23.19;35.60;101296.50;102044;1315;66714;-90
2022/11/09 16:34:17;;;;;;;63.90;44.50;;;;;;;23.19;35.62;101296.35;101472;1325;67893;-90
2022/11/09 16:36:43;;;;;;;72.00;49.00;;;;;;;23.18;35.55;101300.77;101545;1310;67416;-90
2022/11/09 16:39:11;;;;;;;61.60;41.30;;;;;;;23.13;35.55;101302.73;101571;1310;69219;-90
2022/11/09 16:41:39;;;;;;;63.20;39.00;;;;;;;23.07;35.64;101302.21;101039;1336;69139;-90
2022/11/09 16:44:04;;;;;;;60.00;35.90;;;;;;;23.05;35.56;101299.93;101078;1336;68637;-90
2022/11/09 16:46:30;;;;;;;54.60;36.00;;;;;;;23.05;35.53;101303.89;101680;1338;69160;-90
2022/11/09 16:48:56;;;;;;;56.00;35.00;;;;;;;23.06;35.53;101302.46;101847;1332;69157;-90
2022/11/09 16:51:22;;;;;;;59.50;34.40;;;;;;;23.06;35.57;101302.61;101001;1339;69207;-89
2022/11/09 16:53:47;;;;;;;49.40;31.80;;;;;;;23.08;35.50;101305.50;101028;1332;69193;-90
2022/11/09 16:56:13;;;;;;;45.90;30.80;;;;;;;23.08;35.58;101304.42;100772;1336;69221;-89
2022/11/09 16:58:39;;;;;;;50.50;30.20;;;;;;;23.09;35.54;101305.71;101383;1339;69220;-89
2022/11/09 17:01:04;;;;;;;44.10;29.60;;;;;;;23.10;35.63;101302.73;102780;1332;66719;-90
2022/11/09 17:03:30;;;;;;;47.10;28.80;;;;;;;23.11;35.55;101302.33;101945;1329;69243;-90
2022/11/09 17:06:00;;;;;;;40.50;28.70;;;;;;;23.13;35.59;101303.30;101070;1338;69317;-90
2022/11/09 17:08:26;;;;;;;42.40;27.60;;;;;;;23.14;35.62;101303.00;100976;1340;69239;-89
2022/11/09 17:10:52;;;;;;;38.10;27.20;;;;;;;23.14;35.66;101302.13;100750;1335;69219;-90
2022/11/09 17:13:17;;;;;;;39.80;26.30;;;;;;;23.14;35.59;101297.20;100878;1339;69216;-89
2022/11/09 17:15:46;;;;;;;43.80;25.90;;;;;;;23.15;35.62;101299.35;101023;1333;69244;-89
2022/11/09 17:18:11;;;;;;;36.10;25.30;;;;;;;23.15;35.64;101302.34;101311;1307;69221;-90
2022/11/09 17:20:43;;;;;;;39.00;25.10;;;;;;;23.16;35.62;101304.39;100852;1339;69256;-90
2022/11/09 17:23:10;;;;;;;37.30;24.80;;;;;;;23.16;35.65;101304.45;100851;1337;72903;-91
2022/11/09 17:25:36;;;;;;;36.20;24.60;;;;;;;23.17;35.59;101303.42;100954;1339;69174;-90
2022/11/09 17:28:02;;;;;;;37.20;23.20;;;;;;;23.17;35.68;101305.94;100981;1332;69344;-89
2022/11/09 17:30:30;;;;;;;35.60;23.80;;;;;;;23.17;35.70;101305.11;101091;1331;67756;-89
2022/11/09 17:32:56;;;;;;;35.90;23.30;;;;;;;23.17;35.62;101301.89;101038;1332;69233;-90
2022/11/09 17:35:23;;;;;;;36.80;23.30;;;;;;;23.17;35.66;101303.73;101071;1335;69228;-90
2022/11/09 17:37:48;;;;;;;34.80;22.70;;;;;;;23.17;35.74;101305.84;101056;1329;69349;-89
2022/11/09 17:40:16;;;;;;;38.40;23.50;;;;;;;23.16;35.76;101304.19;101285;1338;69199;-90
2022/11/09 17:42:41;;;;;;;36.60;22.80;;;;;;;23.16;35.68;101304.50;101074;1315;69191;-90
2022/11/09 17:45:07;;;;;;;37.50;23.20;;;;;;;23.17;35.74;101306.25;100901;1330;69302;-90
2022/11/09 17:47:33;;;;;;;35.00;23.00;;;;;;;23.16;35.69;101304.18;101052;1320;67725;-90
2022/11/09 17:49:58;;;;;;;31.00;22.70;;;;;;;23.16;35.67;101307.58;100804;1332;69614;-90
2022/11/09 17:52:24;;;;;;;33.80;22.20;;;;;;;23.17;35.74;101307.94;101694;1309;69165;-90
2022/11/09 17:54:49;;;;;;;30.40;22.40;;;;;;;23.17;35.72;101308.91;101118;1325;69198;-90
2022/11/09 17:57:15;;;;;;;30.70;20.90;;;;;;;23.17;35.71;101310.96;101130;1334;67733;-91
2022/11/09 17:59:40;;;;;;;35.50;21.90;;;;;;;23.17;35.73;101309.48;101016;1333;69259;-91
2022/11/09 18:02:06;;;;;;;34.30;20.90;;;;;;;23.17;35.68;101306.25;101239;1333;69663;-94
2022/11/09 18:04:31;;;;;;;31.60;20.90;;;;;;;23.17;35.75;101307.23;101097;1332;69287;-88
2022/11/09 18:06:57;;;;;;;31.70;21.50;;;;;;;23.16;35.69;101305.21;101266;1328;69172;-88
2022/11/09 18:09:22;;;;;;;34.40;21.70;;;;;;;23.16;35.81;101302.90;101319;1327;69034;-88
2022/11/09 18:11:48;;;;;;;31.70;21.10;;;;;;;23.16;35.85;101304.60;101114;1328;69180;-88
2022/11/09 18:14:14;;;;;;;32.70;20.80;;;;;;;23.16;35.78;101295.36;101226;1328;69170;-89
2022/11/09 18:16:40;;;;;;;34.00;21.20;;;;;;;23.16;35.78;101295.36;101007;1333;69057;-88
2022/11/09 18:19:06;;;;;;;23.50;16.50;;;;;;;23.16;35.84;101296.95;101254;1328;69118;-88
2022/11/09 18:21:32;;;;;;;33.30;21.50;;;;;;;23.16;35.78;101299.67;101433;1325;69209;-88
2022/11/09 18:23:58;;;;;;;29.70;20.10;;;;;;;23.16;35.85;101301.06;101266;1336;67885;-88
2022/11/09 18:26:23;;;;;;;29.70;20.30;;;;;;;23.16;35.75;101303.01;101366;1328;69179;-88
2022/11/09 18:28:49;;;;;;;32.70;20.90;;;;;;;23.16;35.87;101301.11;101177;1329;67070;-88
2022/11/09 18:31:14;;;;;;;33.70;20.30;;;;;;;23.16;35.79;101299.98;101286;1295;69199;-90
2022/11/09 18:33:41;;;;;;;30.30;20.00;;;;;;;23.16;35.73;101297.72;101662;1299;69159;-90
2022/11/09 18:36:13;;;;;;;29.60;19.80;;;;;;;23.16;35.84;101300.34;101186;1332;69221;-91
2022/11/09 18:38:39;;;;;;;30.00;20.00;;;;;;;23.15;35.82;101303.27;101362;1333;69033;-90
2022/11/09 18:41:08;;;;;;;32.40;20.20;;;;;;;23.16;35.92;101301.93;101363;1325;69192;-91
2022/11/09 18:43:34;;;;;;;31.20;20.30;;;;;;;23.16;35.90;101304.76;101118;1333;69133;-90
2022/11/09 18:46:03;;;;;;;29.90;20.40;;;;;;;23.16;35.85;101307.98;101182;1319;69203;-90
2022/11/09 18:48:29;;;;;;;33.50;19.40;;;;;;;23.16;35.88;101307.02;101167;1326;69177;-90
2022/11/09 18:50:55;;;;;;;31.70;20.30;;;;;;;23.16;35.95;101312.05;101084;1328;69229;-90
2022/11/09 18:53:22;;;;;;;30.40;19.10;;;;;;;23.16;35.97;101310.61;101268;1333;69239;-90
2022/11/09 18:55:48;;;;;;;29.90;19.50;;;;;;;23.16;35.95;101310.35;101169;1328;69119;-90
2022/11/09 18:58:15;;;;;;;29.20;20.10;;;;;;;23.16;35.92;101310.77;101229;1324;69472;-90
2022/11/09 19:00:40;;;;;;;27.90;19.20;;;;;;;23.16;35.99;101313.44;101352;1323;69179;-90
2022/11/09 19:03:12;;;;;;;32.30;20.50;;;;;;;23.15;35.95;101312.86;101049;1328;69223;-90
2022/11/09 19:05:41;;;;;;;32.40;21.40;;;;;;;23.16;35.88;101314.60;101179;1325;73645;-90
2022/11/09 19:08:07;;;;;;;32.30;20.00;;;;;;;23.15;35.90;101311.16;101185;1326;69272;-90
2022/11/09 19:10:36;;;;;;;31.20;20.00;;;;;;;23.16;35.99;101314.61;100842;1333;69341;-89
2022/11/09 19:13:02;;;;;;;32.10;20.50;;;;;;;23.16;35.90;101318.51;101070;1312;69130;-90
2022/11/09 19:15:27;;;;;;;28.90;20.10;;;;;;;23.15;35.92;101320.86;101246;1327;69266;-90
2022/11/09 19:17:53;;;;;;;29.90;19.40;;;;;;;23.16;35.91;101321.25;101096;1319;69169;-90
2022/11/09 19:20:19;;;;;;;30.00;19.40;;;;;;;23.16;35.96;101320.52;100935;1326;69164;-90
2022/11/09 19:22:45;;;;;;;26.90;20.10;;;;;;;23.16;35.94;101318.92;100878;1333;69221;-92
2022/11/09 19:25:11;;;;;;;33.40;19.90;;;;;;;23.16;35.96;101318.21;100701;1331;69246;-90
2022/11/09 19:27:36;;;;;;;29.00;19.60;;;;;;;23.15;35.99;101319.17;101297;1333;69226;-90
2022/11/09 19:30:03;;;;;;;30.70;19.30;;;;;;;23.15;35.92;101317.64;101034;1333;69401;-90
2022/11/09 19:32:29;;;;;;;30.30;20.40;;;;;;;23.16;35.96;101318.66;101135;1334;69294;-90
2022/11/09 19:34:54;;;;;;;26.20;19.90;;;;;;;23.16;36.02;101317.02;101195;1325;69374;-90
2022/11/09 19:37:20;;;;;;;30.60;20.50;;;;;;;23.16;36.01;101320.27;100963;1326;69131;-91
2022/11/09 19:39:46;;;;;;;30.30;20.90;;;;;;;23.16;35.93;101321.23;101159;1332;69329;-90
2022/11/09 19:42:12;;;;;;;33.70;20.90;;;;;;;23.16;36.05;101321.64;101211;1327;69256;-90
2022/11/09 19:44:38;;;;;;;34.70;21.90;;;;;;;23.16;35.99;101321.55;101178;1327;69114;-90
2022/11/09 19:47:03;;;;;;;34.30;22.30;;;;;;;23.16;35.94;101322.26;101333;1326;69216;-90
2022/11/09 19:49:29;;;;;;;36.10;22.70;;;;;;;23.16;36.12;101323.65;101272;1326;69185;-90
2022/11/09 19:51:55;;;;;;;34.80;23.90;;;;;;;23.17;36.10;101320.88;101233;1330;69365;-90
2022/11/09 19:54:20;;;;;;;40.30;23.50;;;;;;;23.16;36.13;101324.21;101269;1332;69177;-90
2022/11/09 19:56:46;;;;;;;36.30;24.40;;;;;;;23.17;36.08;101321.44;101055;1326;73593;-90
2022/11/09 19:59:13;;;;;;;37.70;25.40;;;;;;;23.17;36.02;101323.86;101440;1329;69232;-90
2022/11/09 20:01:40;;;;;;;37.60;25.90;;;;;;;23.17;36.06;101322.06;101103;1333;67656;-93
2022/11/09 20:04:06;;;;;;;42.70;26.10;;;;;;;23.17;36.12;101325.05;101023;1331;69247;-90
2022/11/09 20:06:31;;;;;;;40.20;26.50;;;;;;;23.18;36.09;101325.55;101252;1330;69280;-90
2022/11/09 20:08:58;;;;;;;42.50;27.00;;;;;;;23.18;36.11;101327.70;101145;1330;69211;-90
2022/11/09 20:14:08;;;;;;;40.30;28.20;;;;;;;23.17;36.14;101327.09;101118;1324;73441;-90
2022/11/09 20:16:34;;;;;;;41.70;28.60;;;;;;;23.18;36.14;101325.56;101005;1331;69228;-93
2022/11/09 20:19:00;;;;;;;43.00;28.00;;;;;;;23.18;36.23;101323.20;100916;1322;69155;-90
2022/11/09 20:21:26;;;;;;;46.50;28.90;;;;;;;23.18;36.18;101324.80;101349;1326;69346;-90
2022/11/09 20:23:51;;;;;;;44.80;29.30;;;;;;;23.18;36.22;101323.04;101332;1325;69203;-90
2022/11/09 20:26:17;;;;;;;40.50;28.60;;;;;;;23.18;36.20;101323.10;101151;1326;69350;-90
2022/11/09 20:28:42;;;;;;;47.80;29.70;;;;;;;23.18;36.24;101323.91;101111;1333;69264;-91
2022/11/09 20:31:13;;;;;;;44.60;30.50;;;;;;;23.18;36.21;101323.35;100911;1323;69359;-90
2022/11/09 20:33:39;;;;;;;45.20;30.20;;;;;;;23.18;36.35;101325.24;101164;1333;74430;-90
2022/11/09 20:36:04;;;;;;;45.20;29.50;;;;;;;23.18;36.15;101324.38;100993;1327;69222;-90
2022/11/09 20:38:30;;;;;;;47.30;31.20;;;;;;;23.19;36.21;101320.63;101136;1333;69116;-90
2022/11/09 20:41:00;;;;;;;44.10;30.80;;;;;;;23.19;36.21;101324.48;101168;1324;69332;-90
2022/11/09 20:43:26;;;;;;;50.60;30.10;;;;;;;23.19;36.24;101322.63;101114;1333;69235;-90
2022/11/09 20:45:52;;;;;;;45.00;28.80;;;;;;;23.19;36.22;101322.23;101498;1305;67091;-89
2022/11/09 20:48:18;;;;;;;48.90;30.40;;;;;;;23.20;36.31;101321.15;101350;1333;69161;-89
2022/11/09 20:50:43;;;;;;;42.50;30.30;;;;;;;23.20;36.31;101321.30;101263;1333;69323;-90
2022/11/09 20:53:09;;;;;;;45.20;31.10;;;;;;;23.20;36.21;101317.35;101242;1332;69110;-89
2022/11/09 20:55:36;;;;;;;46.70;30.20;;;;;;;23.19;36.21;101315.75;101402;1325;69177;-91
2022/11/09 20:58:02;;;;;;;46.70;30.90;;;;;;;23.20;36.23;101311.71;101038;1333;69110;-90
2022/11/09 21:00:27;;;;;;;47.50;31.10;;;;;;;23.20;36.25;101310.63;101400;1330;69186;-90
2022/11/09 21:02:52;;;;;;;43.20;30.30;;;;;;;23.21;36.24;101310.84;101007;1325;69272;-90
2022/11/09 21:05:18;;;;;;;46.60;31.00;;;;;;;23.21;36.24;101309.98;101245;1333;69331;-90
2022/11/09 21:07:44;;;;;;;46.50;31.20;;;;;;;23.20;36.24;101309.97;101290;1331;69302;-90
2022/11/09 21:10:09;;;;;;;44.30;30.20;;;;;;;23.20;36.22;101311.51;101162;1333;67715;-90
2022/11/09 21:12:35;;;;;;;45.80;31.50;;;;;;;23.20;36.36;101314.48;101211;1326;69192;-90
2022/11/09 21:15:00;;;;;;;44.80;30.80;;;;;;;23.20;36.22;101315.40;101343;1327;69229;-90
2022/11/09 21:17:26;;;;;;;44.10;31.20;;;;;;;23.19;36.29;101311.80;101001;1336;69209;-90
2022/11/09 21:19:51;;;;;;;43.30;30.70;;;;;;;23.19;36.26;101315.05;101020;1336;69130;-90
2022/11/09 21:22:17;;;;;;;49.60;31.10;;;;;;;23.19;36.28;101314.84;100908;1329;69245;-91
2022/11/09 21:30:11;;;;;;;46.00;31.10;;;;;;;23.17;36.34;101316.77;101769;1310;69111;-89
2022/11/09 21:32:36;;;;;;;44.90;30.40;;;;;;;23.17;36.41;101318.83;101283;1334;66937;-90
2022/11/09 21:35:02;;;;;;;46.70;30.90;;;;;;;23.15;36.32;101315.38;101460;1325;70103;-90
2022/11/09 21:37:28;;;;;;;51.50;32.20;;;;;;;23.15;36.40;101317.33;101574;1333;67770;-90
2022/11/09 21:39:53;;;;;;;47.20;30.70;;;;;;;23.15;36.43;101319.02;102099;1332;69209;-89
2022/11/09 21:42:19;;;;;;;45.30;29.80;;;;;;;23.15;36.37;101320.97;102059;1333;69418;-90
2022/11/09 21:44:45;;;;;;;47.60;31.30;;;;;;;23.14;36.23;101323.99;101494;1330;69365;-89
2022/11/09 21:47:10;;;;;;;48.20;30.50;;;;;;;23.14;36.32;101325.11;101195;1333;69229;-89
2022/11/09 21:49:36;;;;;;;48.10;31.60;;;;;;;23.14;36.32;101327.80;101136;1335;69291;-90
2022/11/09 21:52:02;;;;;;;47.80;30.50;;;;;;;23.14;36.33;101330.81;101053;1336;69193;-89
2022/11/09 21:54:28;;;;;;;46.00;31.40;;;;;;;23.13;36.29;101327.21;101254;1334;69346;-89
2022/11/09 21:56:53;;;;;;;52.70;31.20;;;;;;;23.12;36.35;101327.27;101142;1329;69155;-89
2022/11/09 21:59:19;;;;;;;45.00;29.80;;;;;;;23.12;36.30;101328.55;101182;1332;69230;-89
2022/11/09 22:01:45;;;;;;;44.00;29.70;;;;;;;23.11;36.38;101330.34;101231;1328;69148;-89
2022/11/09 22:04:11;;;;;;;47.40;31.40;;;;;;;23.10;36.53;101330.10;101039;1321;69101;-93
2022/11/09 22:06:38;;;;;;;49.30;31.20;;;;;;;23.09;36.31;101332.40;101157;1333;69547;-90
2022/11/09 22:09:05;;;;;;;46.60;32.10;;;;;;;23.08;36.36;101329.16;101233;1328;73539;-89
2022/11/09 22:17:01;;;;;;;51.60;31.90;;;;;;;23.06;36.43;101327.72;102077;1332;70187;-89
2022/11/09 22:22:13;;;;;;;46.80;31.00;;;;;;;23.04;36.45;101326.77;101560;1325;73417;-89
2022/11/09 22:24:38;;;;;;;52.00;32.90;;;;;;;23.04;36.44;101323.85;100919;1335;72668;-89
2022/11/09 22:27:04;;;;;;;46.80;31.20;;;;;;;23.04;36.44;101328.79;101179;1335;69274;-89
2022/11/09 22:29:29;;;;;;;48.60;31.50;;;;;;;23.04;36.41;101329.44;101162;1333;69203;-89
2022/11/09 22:31:55;;;;;;;47.20;31.20;;;;;;;23.04;36.46;101329.39;101092;1333;69330;-89
2022/11/09 22:34:21;;;;;;;48.10;32.20;;;;;;;23.02;36.39;101328.97;100933;1333;69197;-90
2022/11/09 22:36:46;;;;;;;46.40;31.40;;;;;;;23.02;36.44;101326.51;101111;1336;69657;-89
2022/11/09 22:39:12;;;;;;;44.00;29.70;;;;;;;23.02;36.38;101326.61;100977;1328;69211;-89
2022/11/09 22:41:38;;;;;;;48.70;31.80;;;;;;;23.01;36.32;101323.42;101133;1335;69208;-89
2022/11/09 22:44:03;;;;;;;46.30;31.10;;;;;;;23.00;36.37;101322.45;101177;1330;69368;-89
2022/11/09 22:46:29;;;;;;;49.70;32.10;;;;;;;23.00;36.43;101323.83;101195;1330;69211;-89
2022/11/09 22:48:54;;;;;;;59.30;31.70;;;;;;;22.99;36.42;101323.00;100857;1326;69231;-89
2022/11/09 22:51:20;;;;;;;47.50;31.00;;;;;;;22.99;36.36;101323.31;101058;1332;69355;-89
2022/11/09 22:53:49;;;;;;;44.00;29.10;;;;;;;22.98;36.36;101322.60;101122;1334;69219;-90
2022/11/09 22:56:15;;;;;;;43.50;30.50;;;;;;;22.97;36.34;101323.20;101113;1327;72550;-89
2022/11/09 22:58:41;;;;;;;46.90;30.00;;;;;;;22.96;36.31;101323.20;101014;1335;69152;-89
2022/11/09 23:01:12;;;;;;;45.70;29.50;;;;;;;22.95;36.32;101324.67;101326;1334;69114;-92
2022/11/09 23:03:37;;;;;;;44.60;29.50;;;;;;;22.95;36.37;101322.67;100963;1336;69123;-89
2022/11/09 23:06:05;;;;;;;41.40;28.90;;;;;;;22.94;36.33;101321.20;101189;1334;69277;-89
2022/11/09 23:08:32;;;;;;;41.30;29.70;;;;;;;22.94;36.34;101323.80;101165;1335;72634;-89
2022/11/09 23:10:57;;;;;;;44.70;28.90;;;;;;;22.93;36.27;101322.05;101072;1338;68283;-89
2022/11/09 23:13:23;;;;;;;41.10;27.80;;;;;;;22.93;36.31;101323.69;100900;1335;69230;-89
2022/11/09 23:15:53;;;;;;;48.10;29.10;;;;;;;22.93;36.35;101323.35;100861;1332;69221;-90
2022/11/09 23:21:03;;;;;;;51.80;29.80;;;;;;;22.91;36.24;101318.09;101053;1333;67714;-89
2022/11/09 23:23:29;;;;;;;45.40;28.50;;;;;;;22.91;36.24;101318.02;100874;1335;69247;-89
2022/11/09 23:25:55;;;;;;;40.30;27.40;;;;;;;22.90;36.25;101317.11;101040;1334;69287;-90
2022/11/09 23:28:22;;;;;;;41.90;28.00;;;;;;;22.90;36.19;101317.00;100890;1336;69076;-89
2022/11/09 23:30:47;;;;;;;41.60;28.10;;;;;;;22.89;36.27;101317.35;100870;1336;69232;-90
2022/11/09 23:33:13;;;;;;;42.40;26.50;;;;;;;22.88;36.14;101321.51;100843;1331;69134;-89
2022/11/09 23:35:39;;;;;;;42.80;28.40;;;;;;;22.88;36.20;101317.81;101008;1336;69336;-89
2022/11/09 23:38:04;;;;;;;43.70;27.90;;;;;;;22.87;36.18;101317.86;101079;1334;69208;-89
2022/11/09 23:40:31;;;;;;;41.50;27.50;;;;;;;22.87;36.19;101320.53;100962;1336;69255;-89
2022/11/09 23:43:06;;;;;;;41.70;26.60;;;;;;;22.87;36.14;101325.65;100890;1328;69112;-90
2022/11/09 23:45:33;;;;;;;38.90;26.50;;;;;;;22.86;36.17;101322.48;100935;1334;68969;-90
2022/11/09 23:47:58;;;;;;;41.60;27.50;;;;;;;22.86;36.10;101319.35;101086;1329;69214;-89
2022/11/09 23:50:24;;;;;;;38.70;26.10;;;;;;;22.86;36.14;101322.73;101056;1332;69144;-89
2022/11/09 23:52:49;;;;;;;40.70;25.50;;;;;;;22.86;36.13;101322.43;101036;1334;69160;-89
2022/11/09 23:55:15;;;;;;;39.10;26.10;;;;;;;22.85;36.16;101322.79;101231;1336;69167;-89
2022/11/09 23:57:42;;;;;;;40.70;25.90;;;;;;;22.85;36.13;101325.14;100970;1333;69194;-90
